sensor_id;sensor_type;location;lat;lon;timestamp;temperature;humidity
5384;DHT22;2715;53.448;10.078;2022-10-16T00:01:04;24.60;78.70
5384;DHT22;2715;53.448;10.078;2022-10-16T00:03:33;24.60;77.60
5384;DHT22;2715;53.448;10.078;2022-10-16T00:05:59;24.60;77.60
5384;DHT22;2715;53.448;10.078;2022-10-16T00:08:27;24.60;77.00
5384;DHT22;2715;53.448;10.078;2022-10-16T00:10:58;24.60;77.40
5384;DHT22;2715;53.448;10.078;2022-10-16T00:13:24;24.60;77.90
5384;DHT22;2715;53.448;10.078;2022-10-16T00:15:54;24.60;79.90
5384;DHT22;2715;53.448;10.078;2022-10-16T00:18:21;24.60;82.20
5384;DHT22;2715;53.448;10.078;2022-10-16T00:20:49;24.60;78.60
5384;DHT22;2715;53.448;10.078;2022-10-16T00:23:15;24.60;76.10
5384;DHT22;2715;53.448;10.078;2022-10-16T00:25:42;24.60;75.60
5384;DHT22;2715;53.448;10.078;2022-10-16T00:28:09;24.60;75.50
5384;DHT22;2715;53.448;10.078;2022-10-16T00:30:37;24.60;75.90
5384;DHT22;2715;53.448;10.078;2022-10-16T00:33:03;24.50;76.40
5384;DHT22;2715;53.448;10.078;2022-10-16T00:35:30;24.50;77.00
5384;DHT22;2715;53.448;10.078;2022-10-16T00:37:58;24.50;78.10
5384;DHT22;2715;53.448;10.078;2022-10-16T00:40:25;24.50;79.10
5384;DHT22;2715;53.448;10.078;2022-10-16T00:42:53;24.50;79.90
5384;DHT22;2715;53.448;10.078;2022-10-16T00:45:20;24.50;79.40
5384;DHT22;2715;53.448;10.078;2022-10-16T00:47:46;24.50;78.80
5384;DHT22;2715;53.448;10.078;2022-10-16T00:50:16;24.50;78.70
5384;DHT22;2715;53.448;10.078;2022-10-16T00:52:45;24.50;78.70
5384;DHT22;2715;53.448;10.078;2022-10-16T00:55:14;24.50;78.60
5384;DHT22;2715;53.448;10.078;2022-10-16T00:57:41;24.50;76.70
5384;DHT22;2715;53.448;10.078;2022-10-16T01:00:09;24.50;77.10
5384;DHT22;2715;53.448;10.078;2022-10-16T01:02:36;24.50;77.00
5384;DHT22;2715;53.448;10.078;2022-10-16T01:05:03;24.40;76.60
5384;DHT22;2715;53.448;10.078;2022-10-16T01:07:34;24.40;77.10
5384;DHT22;2715;53.448;10.078;2022-10-16T01:10:06;24.40;77.30
5384;DHT22;2715;53.448;10.078;2022-10-16T01:12:37;24.40;77.60
5384;DHT22;2715;53.448;10.078;2022-10-16T01:15:07;24.40;78.20
5384;DHT22;2715;53.448;10.078;2022-10-16T01:17:37;24.40;78.40
5384;DHT22;2715;53.448;10.078;2022-10-16T01:20:08;24.40;78.10
5384;DHT22;2715;53.448;10.078;2022-10-16T01:22:41;24.40;78.80
5384;DHT22;2715;53.448;10.078;2022-10-16T01:25:11;24.40;79.20
5384;DHT22;2715;53.448;10.078;2022-10-16T01:27:42;24.40;79.30
5384;DHT22;2715;53.448;10.078;2022-10-16T01:30:11;24.30;79.00
5384;DHT22;2715;53.448;10.078;2022-10-16T01:32:40;24.30;78.90
5384;DHT22;2715;53.448;10.078;2022-10-16T01:35:09;24.30;78.90
5384;DHT22;2715;53.448;10.078;2022-10-16T01:37:37;24.30;79.10
5384;DHT22;2715;53.448;10.078;2022-10-16T01:40:05;24.30;79.70
5384;DHT22;2715;53.448;10.078;2022-10-16T01:42:34;24.30;80.00
5384;DHT22;2715;53.448;10.078;2022-10-16T01:45:03;24.30;80.00
5384;DHT22;2715;53.448;10.078;2022-10-16T01:47:31;24.30;80.40
5384;DHT22;2715;53.448;10.078;2022-10-16T01:49:58;24.30;81.20
5384;DHT22;2715;53.448;10.078;2022-10-16T01:52:26;24.30;79.10
5384;DHT22;2715;53.448;10.078;2022-10-16T01:54:54;24.30;78.20
5384;DHT22;2715;53.448;10.078;2022-10-16T01:57:22;24.30;79.70
5384;DHT22;2715;53.448;10.078;2022-10-16T01:59:50;24.30;79.60
5384;DHT22;2715;53.448;10.078;2022-10-16T02:02:20;24.30;78.90
5384;DHT22;2715;53.448;10.078;2022-10-16T02:04:49;24.20;79.10
5384;DHT22;2715;53.448;10.078;2022-10-16T02:07:17;24.20;80.30
5384;DHT22;2715;53.448;10.078;2022-10-16T02:09:43;24.20;81.40
5384;DHT22;2715;53.448;10.078;2022-10-16T02:12:12;24.20;81.30
5384;DHT22;2715;53.448;10.078;2022-10-16T02:14:40;24.20;81.20
5384;DHT22;2715;53.448;10.078;2022-10-16T02:17:10;24.20;81.20
5384;DHT22;2715;53.448;10.078;2022-10-16T02:19:39;24.20;81.30
5384;DHT22;2715;53.448;10.078;2022-10-16T02:22:06;24.20;80.00
5384;DHT22;2715;53.448;10.078;2022-10-16T02:24:35;24.20;80.60
5384;DHT22;2715;53.448;10.078;2022-10-16T02:27:05;24.20;75.00
5384;DHT22;2715;53.448;10.078;2022-10-16T02:29:33;24.20;73.90
5384;DHT22;2715;53.448;10.078;2022-10-16T02:32:03;24.10;73.50
5384;DHT22;2715;53.448;10.078;2022-10-16T02:34:31;24.20;73.70
5384;DHT22;2715;53.448;10.078;2022-10-16T02:36:59;24.10;73.70
5384;DHT22;2715;53.448;10.078;2022-10-16T02:39:27;24.10;73.30
5384;DHT22;2715;53.448;10.078;2022-10-16T02:41:55;24.10;73.30
5384;DHT22;2715;53.448;10.078;2022-10-16T02:44:21;24.10;73.50
5384;DHT22;2715;53.448;10.078;2022-10-16T02:46:48;24.10;74.10
5384;DHT22;2715;53.448;10.078;2022-10-16T02:49:15;24.10;74.50
5384;DHT22;2715;53.448;10.078;2022-10-16T02:51:42;24.10;75.50
5384;DHT22;2715;53.448;10.078;2022-10-16T02:54:10;24.10;76.50
5384;DHT22;2715;53.448;10.078;2022-10-16T02:56:36;24.10;78.40
5384;DHT22;2715;53.448;10.078;2022-10-16T02:59:03;24.10;78.60
5384;DHT22;2715;53.448;10.078;2022-10-16T03:01:30;24.10;79.70
5384;DHT22;2715;53.448;10.078;2022-10-16T03:03:56;24.10;79.50
5384;DHT22;2715;53.448;10.078;2022-10-16T03:06:23;24.10;80.20
5384;DHT22;2715;53.448;10.078;2022-10-16T03:08:50;24.10;80.50
5384;DHT22;2715;53.448;10.078;2022-10-16T03:11:18;24.10;76.50
5384;DHT22;2715;53.448;10.078;2022-10-16T03:13:44;24.00;73.80
5384;DHT22;2715;53.448;10.078;2022-10-16T03:16:11;24.10;74.10
5384;DHT22;2715;53.448;10.078;2022-10-16T03:18:38;24.10;73.70
5384;DHT22;2715;53.448;10.078;2022-10-16T03:21:04;24.00;73.20
5384;DHT22;2715;53.448;10.078;2022-10-16T03:23:31;24.00;72.90
5384;DHT22;2715;53.448;10.078;2022-10-16T03:25:58;24.00;72.80
5384;DHT22;2715;53.448;10.078;2022-10-16T03:28:26;24.00;72.80
5384;DHT22;2715;53.448;10.078;2022-10-16T03:30:52;24.00;72.00
5384;DHT22;2715;53.448;10.078;2022-10-16T03:33:19;24.00;72.00
5384;DHT22;2715;53.448;10.078;2022-10-16T03:35:50;24.00;71.90
5384;DHT22;2715;53.448;10.078;2022-10-16T03:38:17;24.00;71.60
5384;DHT22;2715;53.448;10.078;2022-10-16T03:40:43;24.00;71.60
5384;DHT22;2715;53.448;10.078;2022-10-16T03:43:10;24.00;72.00
5384;DHT22;2715;53.448;10.078;2022-10-16T03:45:38;24.00;72.20
5384;DHT22;2715;53.448;10.078;2022-10-16T03:48:05;24.00;72.30
5384;DHT22;2715;53.448;10.078;2022-10-16T03:50:32;24.00;72.80
5384;DHT22;2715;53.448;10.078;2022-10-16T03:52:58;24.00;72.30
5384;DHT22;2715;53.448;10.078;2022-10-16T03:55:25;24.00;72.30
5384;DHT22;2715;53.448;10.078;2022-10-16T03:57:52;24.00;72.20
5384;DHT22;2715;53.448;10.078;2022-10-16T04:00:18;24.00;72.40
5384;DHT22;2715;53.448;10.078;2022-10-16T04:02:46;24.00;72.60
5384;DHT22;2715;53.448;10.078;2022-10-16T04:05:13;23.90;72.70
5384;DHT22;2715;53.448;10.078;2022-10-16T04:07:40;23.90;72.90
5384;DHT22;2715;53.448;10.078;2022-10-16T04:10:07;23.90;73.50
5384;DHT22;2715;53.448;10.078;2022-10-16T04:12:33;23.90;73.50
5384;DHT22;2715;53.448;10.078;2022-10-16T04:15:00;23.90;73.60
5384;DHT22;2715;53.448;10.078;2022-10-16T04:17:27;23.90;73.30
5384;DHT22;2715;53.448;10.078;2022-10-16T04:19:55;23.90;72.80
5384;DHT22;2715;53.448;10.078;2022-10-16T04:22:22;23.90;72.70
5384;DHT22;2715;53.448;10.078;2022-10-16T04:24:48;23.90;72.70
5384;DHT22;2715;53.448;10.078;2022-10-16T04:27:15;23.90;72.60
5384;DHT22;2715;53.448;10.078;2022-10-16T04:29:42;23.90;72.80
5384;DHT22;2715;53.448;10.078;2022-10-16T04:32:08;23.90;73.70
5384;DHT22;2715;53.448;10.078;2022-10-16T04:34:35;23.90;74.00
5384;DHT22;2715;53.448;10.078;2022-10-16T04:37:04;23.90;74.60
5384;DHT22;2715;53.448;10.078;2022-10-16T04:39:31;23.90;74.90
5384;DHT22;2715;53.448;10.078;2022-10-16T04:41:58;23.80;74.40
5384;DHT22;2715;53.448;10.078;2022-10-16T04:44:24;23.90;74.90
5384;DHT22;2715;53.448;10.078;2022-10-16T04:46:51;23.80;76.00
5384;DHT22;2715;53.448;10.078;2022-10-16T04:49:18;23.90;75.70
5384;DHT22;2715;53.448;10.078;2022-10-16T04:51:44;23.80;76.20
5384;DHT22;2715;53.448;10.078;2022-10-16T04:54:12;23.80;75.90
5384;DHT22;2715;53.448;10.078;2022-10-16T04:56:39;23.80;75.80
5384;DHT22;2715;53.448;10.078;2022-10-16T04:59:12;23.80;76.00
5384;DHT22;2715;53.448;10.078;2022-10-16T05:01:38;23.80;75.80
5384;DHT22;2715;53.448;10.078;2022-10-16T05:04:05;23.80;75.80
5384;DHT22;2715;53.448;10.078;2022-10-16T05:06:32;23.70;75.20
5384;DHT22;2715;53.448;10.078;2022-10-16T05:08:58;23.70;76.10
5384;DHT22;2715;53.448;10.078;2022-10-16T05:11:27;23.80;76.30
5384;DHT22;2715;53.448;10.078;2022-10-16T05:13:53;23.70;76.70
5384;DHT22;2715;53.448;10.078;2022-10-16T05:16:20;23.70;77.40
5384;DHT22;2715;53.448;10.078;2022-10-16T05:18:46;23.70;77.80
5384;DHT22;2715;53.448;10.078;2022-10-16T05:21:13;23.70;74.40
5384;DHT22;2715;53.448;10.078;2022-10-16T05:23:40;23.70;74.60
5384;DHT22;2715;53.448;10.078;2022-10-16T05:26:07;23.70;73.80
5384;DHT22;2715;53.448;10.078;2022-10-16T05:28:35;23.70;73.60
5384;DHT22;2715;53.448;10.078;2022-10-16T05:31:04;23.70;72.70
5384;DHT22;2715;53.448;10.078;2022-10-16T05:33:30;23.70;72.00
5384;DHT22;2715;53.448;10.078;2022-10-16T05:36:00;23.70;72.30
5384;DHT22;2715;53.448;10.078;2022-10-16T05:38:27;23.60;71.50
5384;DHT22;2715;53.448;10.078;2022-10-16T05:40:54;23.60;72.00
5384;DHT22;2715;53.448;10.078;2022-10-16T05:43:21;23.60;71.70
5384;DHT22;2715;53.448;10.078;2022-10-16T05:45:56;23.60;71.60
5384;DHT22;2715;53.448;10.078;2022-10-16T05:48:23;23.70;71.90
5384;DHT22;2715;53.448;10.078;2022-10-16T05:50:55;23.60;71.70
5384;DHT22;2715;53.448;10.078;2022-10-16T05:53:22;23.60;71.90
5384;DHT22;2715;53.448;10.078;2022-10-16T05:55:53;23.60;71.90
5384;DHT22;2715;53.448;10.078;2022-10-16T05:58:20;23.70;72.00
5384;DHT22;2715;53.448;10.078;2022-10-16T06:00:52;23.60;72.00
5384;DHT22;2715;53.448;10.078;2022-10-16T06:03:20;23.60;72.30
5384;DHT22;2715;53.448;10.078;2022-10-16T06:05:47;23.60;72.70
5384;DHT22;2715;53.448;10.078;2022-10-16T06:08:13;23.70;73.20
5384;DHT22;2715;53.448;10.078;2022-10-16T06:10:40;23.70;73.30
5384;DHT22;2715;53.448;10.078;2022-10-16T06:13:07;23.70;73.40
5384;DHT22;2715;53.448;10.078;2022-10-16T06:15:33;23.70;73.30
5384;DHT22;2715;53.448;10.078;2022-10-16T06:18:00;23.70;73.30
5384;DHT22;2715;53.448;10.078;2022-10-16T06:20:28;23.70;73.30
5384;DHT22;2715;53.448;10.078;2022-10-16T06:22:55;23.70;73.60
5384;DHT22;2715;53.448;10.078;2022-10-16T06:25:21;23.70;73.60
5384;DHT22;2715;53.448;10.078;2022-10-16T06:27:48;23.70;73.60
5384;DHT22;2715;53.448;10.078;2022-10-16T06:30:15;23.70;73.90
5384;DHT22;2715;53.448;10.078;2022-10-16T06:32:41;23.70;74.10
5384;DHT22;2715;53.448;10.078;2022-10-16T06:35:08;23.70;73.90
5384;DHT22;2715;53.448;10.078;2022-10-16T06:37:36;23.70;74.10
5384;DHT22;2715;53.448;10.078;2022-10-16T06:40:03;23.70;74.10
5384;DHT22;2715;53.448;10.078;2022-10-16T06:42:30;23.60;74.10
5384;DHT22;2715;53.448;10.078;2022-10-16T06:44:57;23.60;74.10
5384;DHT22;2715;53.448;10.078;2022-10-16T06:47:23;23.60;74.20
5384;DHT22;2715;53.448;10.078;2022-10-16T06:49:50;23.70;74.30
5384;DHT22;2715;53.448;10.078;2022-10-16T06:52:17;23.60;74.30
5384;DHT22;2715;53.448;10.078;2022-10-16T06:54:45;23.60;74.50
5384;DHT22;2715;53.448;10.078;2022-10-16T06:57:12;23.60;74.70
5384;DHT22;2715;53.448;10.078;2022-10-16T06:59:38;23.70;75.00
5384;DHT22;2715;53.448;10.078;2022-10-16T07:02:05;23.60;75.00
5384;DHT22;2715;53.448;10.078;2022-10-16T07:04:32;23.70;75.30
5384;DHT22;2715;53.448;10.078;2022-10-16T07:06:59;23.60;74.90
5384;DHT22;2715;53.448;10.078;2022-10-16T07:09:26;23.60;75.60
5384;DHT22;2715;53.448;10.078;2022-10-16T07:11:54;23.60;75.70
5384;DHT22;2715;53.448;10.078;2022-10-16T07:14:21;23.60;75.50
5384;DHT22;2715;53.448;10.078;2022-10-16T07:16:48;23.60;76.00
5384;DHT22;2715;53.448;10.078;2022-10-16T07:19:15;23.60;75.30
5384;DHT22;2715;53.448;10.078;2022-10-16T07:21:43;23.60;73.70
5384;DHT22;2715;53.448;10.078;2022-10-16T07:24:11;23.60;72.30
5384;DHT22;2715;53.448;10.078;2022-10-16T07:26:38;23.60;72.10
5384;DHT22;2715;53.448;10.078;2022-10-16T07:29:06;23.60;72.20
5384;DHT22;2715;53.448;10.078;2022-10-16T07:31:33;23.50;72.10
5384;DHT22;2715;53.448;10.078;2022-10-16T07:33:59;23.60;72.10
5384;DHT22;2715;53.448;10.078;2022-10-16T07:36:26;23.60;72.20
5384;DHT22;2715;53.448;10.078;2022-10-16T07:38:53;23.60;72.10
5384;DHT22;2715;53.448;10.078;2022-10-16T07:41:20;23.60;72.00
5384;DHT22;2715;53.448;10.078;2022-10-16T07:43:47;23.60;72.10
5384;DHT22;2715;53.448;10.078;2022-10-16T07:46:16;23.60;72.20
5384;DHT22;2715;53.448;10.078;2022-10-16T07:48:43;23.50;72.10
5384;DHT22;2715;53.448;10.078;2022-10-16T07:51:12;23.60;72.30
5384;DHT22;2715;53.448;10.078;2022-10-16T07:53:39;23.60;72.30
5384;DHT22;2715;53.448;10.078;2022-10-16T07:56:06;23.50;72.30
5384;DHT22;2715;53.448;10.078;2022-10-16T07:58:33;23.50;72.10
5384;DHT22;2715;53.448;10.078;2022-10-16T08:01:03;23.50;72.20
5384;DHT22;2715;53.448;10.078;2022-10-16T08:03:31;23.50;72.20
5384;DHT22;2715;53.448;10.078;2022-10-16T08:05:58;23.60;72.30
5384;DHT22;2715;53.448;10.078;2022-10-16T08:08:25;23.60;72.40
5384;DHT22;2715;53.448;10.078;2022-10-16T08:10:52;23.60;72.50
5384;DHT22;2715;53.448;10.078;2022-10-16T08:13:19;23.60;72.50
5384;DHT22;2715;53.448;10.078;2022-10-16T08:15:46;23.60;72.70
5384;DHT22;2715;53.448;10.078;2022-10-16T08:18:13;23.60;72.70
5384;DHT22;2715;53.448;10.078;2022-10-16T08:20:42;23.60;72.90
5384;DHT22;2715;53.448;10.078;2022-10-16T08:23:09;23.60;72.80
5384;DHT22;2715;53.448;10.078;2022-10-16T08:25:36;23.60;72.80
5384;DHT22;2715;53.448;10.078;2022-10-16T08:28:03;23.60;72.90
5384;DHT22;2715;53.448;10.078;2022-10-16T08:30:31;23.60;73.10
5384;DHT22;2715;53.448;10.078;2022-10-16T08:32:57;23.70;73.00
5384;DHT22;2715;53.448;10.078;2022-10-16T08:35:24;23.70;72.90
5384;DHT22;2715;53.448;10.078;2022-10-16T08:37:52;23.70;72.80
5384;DHT22;2715;53.448;10.078;2022-10-16T08:40:19;23.70;72.80
5384;DHT22;2715;53.448;10.078;2022-10-16T08:42:50;23.70;73.00
5384;DHT22;2715;53.448;10.078;2022-10-16T08:45:26;23.70;72.90
5384;DHT22;2715;53.448;10.078;2022-10-16T08:48:00;23.70;73.20
5384;DHT22;2715;53.448;10.078;2022-10-16T08:50:30;23.70;73.30
5384;DHT22;2715;53.448;10.078;2022-10-16T08:53:01;23.70;73.40
5384;DHT22;2715;53.448;10.078;2022-10-16T08:55:31;23.80;74.30
5384;DHT22;2715;53.448;10.078;2022-10-16T08:58:00;23.80;74.70
5384;DHT22;2715;53.448;10.078;2022-10-16T09:00:27;23.80;75.50
5384;DHT22;2715;53.448;10.078;2022-10-16T09:02:56;23.90;75.80
5384;DHT22;2715;53.448;10.078;2022-10-16T09:05:37;23.90;75.70
5384;DHT22;2715;53.448;10.078;2022-10-16T09:08:14;23.90;75.80
5384;DHT22;2715;53.448;10.078;2022-10-16T09:10:47;24.00;75.70
5384;DHT22;2715;53.448;10.078;2022-10-16T09:13:18;24.00;75.90
5384;DHT22;2715;53.448;10.078;2022-10-16T09:15:48;24.00;76.10
5384;DHT22;2715;53.448;10.078;2022-10-16T09:18:18;24.10;76.40
5384;DHT22;2715;53.448;10.078;2022-10-16T09:20:49;24.20;76.80
5384;DHT22;2715;53.448;10.078;2022-10-16T09:23:18;24.20;76.70
5384;DHT22;2715;53.448;10.078;2022-10-16T09:25:47;24.30;77.30
5384;DHT22;2715;53.448;10.078;2022-10-16T09:28:14;24.40;76.90
5384;DHT22;2715;53.448;10.078;2022-10-16T09:30:41;24.50;77.00
5384;DHT22;2715;53.448;10.078;2022-10-16T09:33:09;24.50;76.80
5384;DHT22;2715;53.448;10.078;2022-10-16T09:35:36;24.50;76.90
5384;DHT22;2715;53.448;10.078;2022-10-16T09:38:04;24.50;76.20
5384;DHT22;2715;53.448;10.078;2022-10-16T09:40:33;24.50;76.20
5384;DHT22;2715;53.448;10.078;2022-10-16T09:43:19;24.60;76.20
5384;DHT22;2715;53.448;10.078;2022-10-16T09:45:53;24.60;76.60
5384;DHT22;2715;53.448;10.078;2022-10-16T09:48:20;24.70;76.90
5384;DHT22;2715;53.448;10.078;2022-10-16T09:50:54;24.70;76.60
5384;DHT22;2715;53.448;10.078;2022-10-16T09:53:21;24.80;77.20
5384;DHT22;2715;53.448;10.078;2022-10-16T09:55:50;24.80;76.60
5384;DHT22;2715;53.448;10.078;2022-10-16T09:58:17;24.80;76.40
5384;DHT22;2715;53.448;10.078;2022-10-16T10:00:48;24.80;76.70
5384;DHT22;2715;53.448;10.078;2022-10-16T10:03:16;24.90;76.70
5384;DHT22;2715;53.448;10.078;2022-10-16T10:05:53;24.90;77.20
5384;DHT22;2715;53.448;10.078;2022-10-16T10:08:19;24.90;77.40
5384;DHT22;2715;53.448;10.078;2022-10-16T10:10:47;25.00;77.80
5384;DHT22;2715;53.448;10.078;2022-10-16T10:13:18;25.00;78.10
5384;DHT22;2715;53.448;10.078;2022-10-16T10:15:46;25.00;78.80
5384;DHT22;2715;53.448;10.078;2022-10-16T10:18:16;25.00;78.80
5384;DHT22;2715;53.448;10.078;2022-10-16T10:20:43;25.10;79.10
5384;DHT22;2715;53.448;10.078;2022-10-16T10:23:18;25.10;79.00
5384;DHT22;2715;53.448;10.078;2022-10-16T10:25:49;25.10;79.20
5384;DHT22;2715;53.448;10.078;2022-10-16T10:28:28;25.20;79.40
5384;DHT22;2715;53.448;10.078;2022-10-16T10:31:00;25.20;79.60
5384;DHT22;2715;53.448;10.078;2022-10-16T10:33:30;25.20;79.70
5384;DHT22;2715;53.448;10.078;2022-10-16T10:36:01;25.30;80.70
5384;DHT22;2715;53.448;10.078;2022-10-16T10:38:31;25.40;79.60
5384;DHT22;2715;53.448;10.078;2022-10-16T10:41:02;25.40;79.20
5384;DHT22;2715;53.448;10.078;2022-10-16T10:43:42;25.50;79.50
5384;DHT22;2715;53.448;10.078;2022-10-16T10:46:14;25.50;78.80
5384;DHT22;2715;53.448;10.078;2022-10-16T10:48:52;25.50;78.50
5384;DHT22;2715;53.448;10.078;2022-10-16T10:51:22;25.60;79.60
5384;DHT22;2715;53.448;10.078;2022-10-16T10:53:53;25.60;80.80
5384;DHT22;2715;53.448;10.078;2022-10-16T10:56:25;25.60;81.60
5384;DHT22;2715;53.448;10.078;2022-10-16T11:01:40;25.50;74.60
5384;DHT22;2715;53.448;10.078;2022-10-16T11:07:04;25.50;74.10
5384;DHT22;2715;53.448;10.078;2022-10-16T11:09:31;25.50;74.50
5384;DHT22;2715;53.448;10.078;2022-10-16T11:11:59;25.50;74.20
5384;DHT22;2715;53.448;10.078;2022-10-16T11:14:28;25.50;73.90
5384;DHT22;2715;53.448;10.078;2022-10-16T11:16:59;25.50;73.20
5384;DHT22;2715;53.448;10.078;2022-10-16T11:19:31;25.50;72.90
5384;DHT22;2715;53.448;10.078;2022-10-16T11:22:02;25.50;72.90
5384;DHT22;2715;53.448;10.078;2022-10-16T11:24:34;25.50;73.00
5384;DHT22;2715;53.448;10.078;2022-10-16T11:27:01;25.60;73.00
5384;DHT22;2715;53.448;10.078;2022-10-16T11:29:30;25.50;73.10
5384;DHT22;2715;53.448;10.078;2022-10-16T11:32:00;25.60;72.60
5384;DHT22;2715;53.448;10.078;2022-10-16T11:34:31;25.60;72.50
5384;DHT22;2715;53.448;10.078;2022-10-16T11:37:01;25.60;72.40
5384;DHT22;2715;53.448;10.078;2022-10-16T11:39:29;25.60;72.70
5384;DHT22;2715;53.448;10.078;2022-10-16T11:41:57;25.60;72.90
5384;DHT22;2715;53.448;10.078;2022-10-16T11:44:33;25.60;73.30
5384;DHT22;2715;53.448;10.078;2022-10-16T11:47:05;25.60;73.70
5384;DHT22;2715;53.448;10.078;2022-10-16T11:49:35;25.60;74.20
5384;DHT22;2715;53.448;10.078;2022-10-16T11:52:05;25.60;75.00
5384;DHT22;2715;53.448;10.078;2022-10-16T11:54:35;25.60;75.10
5384;DHT22;2715;53.448;10.078;2022-10-16T11:57:16;25.70;75.30
5384;DHT22;2715;53.448;10.078;2022-10-16T11:59:45;25.80;75.80
5384;DHT22;2715;53.448;10.078;2022-10-16T12:02:28;25.70;77.80
5384;DHT22;2715;53.448;10.078;2022-10-16T12:04:59;25.70;80.80
5384;DHT22;2715;53.448;10.078;2022-10-16T12:07:32;25.70;78.40
5384;DHT22;2715;53.448;10.078;2022-10-16T12:10:09;25.70;77.90
5384;DHT22;2715;53.448;10.078;2022-10-16T12:12:37;25.80;78.80
5384;DHT22;2715;53.448;10.078;2022-10-16T12:15:18;25.80;78.70
5384;DHT22;2715;53.448;10.078;2022-10-16T12:17:46;25.80;79.00
5384;DHT22;2715;53.448;10.078;2022-10-16T12:20:19;25.90;80.20
5384;DHT22;2715;53.448;10.078;2022-10-16T12:22:47;26.00;80.80
5384;DHT22;2715;53.448;10.078;2022-10-16T12:25:19;25.90;81.60
5384;DHT22;2715;53.448;10.078;2022-10-16T12:27:53;26.00;78.50
5384;DHT22;2715;53.448;10.078;2022-10-16T12:30:20;25.90;76.90
5384;DHT22;2715;53.448;10.078;2022-10-16T12:32:53;25.90;76.40
5384;DHT22;2715;53.448;10.078;2022-10-16T12:35:21;26.00;77.10
5384;DHT22;2715;53.448;10.078;2022-10-16T12:37:48;26.00;77.30
5384;DHT22;2715;53.448;10.078;2022-10-16T12:40:22;26.10;79.50
5384;DHT22;2715;53.448;10.078;2022-10-16T12:42:50;26.00;76.40
5384;DHT22;2715;53.448;10.078;2022-10-16T12:45:24;25.90;76.50
5384;DHT22;2715;53.448;10.078;2022-10-16T12:47:52;26.00;78.40
5384;DHT22;2715;53.448;10.078;2022-10-16T12:50:28;26.00;76.70
5384;DHT22;2715;53.448;10.078;2022-10-16T12:52:56;26.00;76.50
5384;DHT22;2715;53.448;10.078;2022-10-16T12:55:23;26.10;74.90
5384;DHT22;2715;53.448;10.078;2022-10-16T12:58:00;26.00;75.50
5384;DHT22;2715;53.448;10.078;2022-10-16T13:00:32;26.00;77.50
5384;DHT22;2715;53.448;10.078;2022-10-16T13:03:04;26.00;77.20
5384;DHT22;2715;53.448;10.078;2022-10-16T13:05:41;26.10;77.40
5384;DHT22;2715;53.448;10.078;2022-10-16T13:08:13;26.00;75.50
5384;DHT22;2715;53.448;10.078;2022-10-16T13:10:47;26.00;75.80
5384;DHT22;2715;53.448;10.078;2022-10-16T13:13:22;26.10;76.50
5384;DHT22;2715;53.448;10.078;2022-10-16T13:15:53;26.10;77.50
5384;DHT22;2715;53.448;10.078;2022-10-16T13:18:23;26.10;78.70
5384;DHT22;2715;53.448;10.078;2022-10-16T13:20:59;26.20;75.60
5384;DHT22;2715;53.448;10.078;2022-10-16T13:23:30;26.20;73.50
5384;DHT22;2715;53.448;10.078;2022-10-16T13:26:03;26.10;73.50
5384;DHT22;2715;53.448;10.078;2022-10-16T13:28:33;26.20;74.10
5384;DHT22;2715;53.448;10.078;2022-10-16T13:31:01;26.30;73.90
5384;DHT22;2715;53.448;10.078;2022-10-16T13:33:30;26.30;73.10
5384;DHT22;2715;53.448;10.078;2022-10-16T13:35:59;26.30;73.10
5384;DHT22;2715;53.448;10.078;2022-10-16T13:38:27;26.30;72.80
5384;DHT22;2715;53.448;10.078;2022-10-16T13:40:54;26.40;73.70
5384;DHT22;2715;53.448;10.078;2022-10-16T13:43:22;26.40;73.70
5384;DHT22;2715;53.448;10.078;2022-10-16T13:45:54;26.40;73.30
5384;DHT22;2715;53.448;10.078;2022-10-16T13:48:21;26.40;72.90
5384;DHT22;2715;53.448;10.078;2022-10-16T13:50:57;26.40;73.20
5384;DHT22;2715;53.448;10.078;2022-10-16T13:53:25;26.40;73.70
5384;DHT22;2715;53.448;10.078;2022-10-16T13:55:52;26.40;74.50
5384;DHT22;2715;53.448;10.078;2022-10-16T13:58:19;26.40;73.50
5384;DHT22;2715;53.448;10.078;2022-10-16T14:00:53;26.50;74.00
5384;DHT22;2715;53.448;10.078;2022-10-16T14:03:20;26.50;74.40
5384;DHT22;2715;53.448;10.078;2022-10-16T14:05:47;26.50;73.50
5384;DHT22;2715;53.448;10.078;2022-10-16T14:08:14;26.50;74.10
5384;DHT22;2715;53.448;10.078;2022-10-16T14:10:42;26.50;70.00
5384;DHT22;2715;53.448;10.078;2022-10-16T14:13:14;26.50;71.10
5384;DHT22;2715;53.448;10.078;2022-10-16T14:15:45;26.50;70.90
5384;DHT22;2715;53.448;10.078;2022-10-16T14:18:13;26.40;71.70
5384;DHT22;2715;53.448;10.078;2022-10-16T14:20:44;26.30;72.40
5384;DHT22;2715;53.448;10.078;2022-10-16T14:23:19;26.20;65.80
5384;DHT22;2715;53.448;10.078;2022-10-16T14:25:48;26.20;64.80
5384;DHT22;2715;53.448;10.078;2022-10-16T14:28:15;26.20;65.60
5384;DHT22;2715;53.448;10.078;2022-10-16T14:30:49;26.20;67.40
5384;DHT22;2715;53.448;10.078;2022-10-16T14:33:20;26.10;67.00
5384;DHT22;2715;53.448;10.078;2022-10-16T14:35:56;26.10;67.20
5384;DHT22;2715;53.448;10.078;2022-10-16T14:38:26;26.10;67.70
5384;DHT22;2715;53.448;10.078;2022-10-16T14:40:54;26.10;67.90
5384;DHT22;2715;53.448;10.078;2022-10-16T14:43:24;26.10;69.30
5384;DHT22;2715;53.448;10.078;2022-10-16T14:45:54;26.10;74.10
5384;DHT22;2715;53.448;10.078;2022-10-16T14:48:22;26.10;65.70
5384;DHT22;2715;53.448;10.078;2022-10-16T14:50:49;26.10;65.60
5384;DHT22;2715;53.448;10.078;2022-10-16T14:53:15;26.10;66.40
5384;DHT22;2715;53.448;10.078;2022-10-16T14:55:42;26.10;67.10
5384;DHT22;2715;53.448;10.078;2022-10-16T14:58:11;26.10;68.40
5384;DHT22;2715;53.448;10.078;2022-10-16T15:00:40;26.10;71.90
5384;DHT22;2715;53.448;10.078;2022-10-16T15:03:07;26.10;67.90
5384;DHT22;2715;53.448;10.078;2022-10-16T15:05:33;26.00;67.30
5384;DHT22;2715;53.448;10.078;2022-10-16T15:08:00;26.00;63.80
5384;DHT22;2715;53.448;10.078;2022-10-16T15:10:27;26.00;64.00
5384;DHT22;2715;53.448;10.078;2022-10-16T15:12:55;26.00;64.30
5384;DHT22;2715;53.448;10.078;2022-10-16T15:15:26;26.00;64.50
5384;DHT22;2715;53.448;10.078;2022-10-16T15:17:56;26.00;64.60
5384;DHT22;2715;53.448;10.078;2022-10-16T15:20:26;26.00;65.10
5384;DHT22;2715;53.448;10.078;2022-10-16T15:22:53;26.00;65.90
5384;DHT22;2715;53.448;10.078;2022-10-16T15:25:30;26.00;68.60
5384;DHT22;2715;53.448;10.078;2022-10-16T15:27:57;26.10;65.20
5384;DHT22;2715;53.448;10.078;2022-10-16T15:30:24;26.00;64.60
5384;DHT22;2715;53.448;10.078;2022-10-16T15:32:52;26.00;64.50
5384;DHT22;2715;53.448;10.078;2022-10-16T15:35:19;26.00;64.60
5384;DHT22;2715;53.448;10.078;2022-10-16T15:37:46;26.00;64.60
5384;DHT22;2715;53.448;10.078;2022-10-16T15:40:13;26.00;64.70
5384;DHT22;2715;53.448;10.078;2022-10-16T15:42:39;26.00;65.50
5384;DHT22;2715;53.448;10.078;2022-10-16T15:45:06;25.90;65.50
5384;DHT22;2715;53.448;10.078;2022-10-16T15:47:35;25.90;65.40
5384;DHT22;2715;53.448;10.078;2022-10-16T15:50:03;25.90;65.90
5384;DHT22;2715;53.448;10.078;2022-10-16T15:52:30;25.90;65.70
5384;DHT22;2715;53.448;10.078;2022-10-16T15:54:57;25.90;64.90
5384;DHT22;2715;53.448;10.078;2022-10-16T15:57:23;25.90;64.70
5384;DHT22;2715;53.448;10.078;2022-10-16T15:59:50;25.90;64.70